createdAt,value
2022-09-15T00:02:10.448Z,91.20
2022-09-15T00:04:38.523Z,91.10
2022-09-15T00:07:06.923Z,91.10
2022-09-15T00:09:37.162Z,91.10
2022-09-15T00:12:05.871Z,91.20
2022-09-15T00:14:34.261Z,91.00
2022-09-15T00:17:03.469Z,90.80
2022-09-15T00:19:32.186Z,90.50
2022-09-15T00:22:00.257Z,89.90
2022-09-15T00:24:28.666Z,89.40
2022-09-15T00:27:00.101Z,89.40
2022-09-15T00:29:30.729Z,90.00
2022-09-15T00:31:59.059Z,90.20
2022-09-15T00:34:27.828Z,89.70
2022-09-15T00:36:56.061Z,89.60
2022-09-15T00:39:24.185Z,89.70
2022-09-15T00:41:52.486Z,89.50
2022-09-15T00:44:49.256Z,90.00
2022-09-15T00:47:19.891Z,90.00
2022-09-15T00:49:50.441Z,89.30
2022-09-15T00:52:29.938Z,88.90
2022-09-15T00:55:02.715Z,87.90
2022-09-15T00:57:34.200Z,86.80
2022-09-15T01:00:08.845Z,86.90
2022-09-15T01:02:38.734Z,87.70
2022-09-15T01:05:10.803Z,87.00
2022-09-15T01:07:42.497Z,86.50
2022-09-15T01:10:16.180Z,86.10
2022-09-15T01:12:44.581Z,85.20
2022-09-15T01:15:14.523Z,85.80
2022-09-15T01:17:56.978Z,86.40
2022-09-15T01:20:48.531Z,86.80
2022-09-15T01:23:39.202Z,87.10
2022-09-15T01:26:43.281Z,87.40
2022-09-15T01:29:46.298Z,87.60
2022-09-15T01:32:37.215Z,88.30
2022-09-15T01:35:15.019Z,88.00
2022-09-15T01:37:48.755Z,87.70
2022-09-15T01:40:18.532Z,87.70
2022-09-15T01:42:49.476Z,87.70
2022-09-15T01:45:23.655Z,87.90
2022-09-15T01:47:55.296Z,88.00
2022-09-15T01:50:27.746Z,87.70
2022-09-15T01:53:00.662Z,87.00
2022-09-15T01:55:37.339Z,86.30
2022-09-15T01:58:06.215Z,85.80
2022-09-15T02:00:40.304Z,85.40
2022-09-15T02:03:17.315Z,86.10
2022-09-15T02:05:49.966Z,86.30
2022-09-15T02:08:25.202Z,85.80
2022-09-15T02:11:01.543Z,86.30
2022-09-15T02:13:39.661Z,86.20
2022-09-15T02:16:19.873Z,85.90
2022-09-15T02:19:00.772Z,85.50
2022-09-15T02:21:34.720Z,86.20
2022-09-15T02:24:08.520Z,87.40
2022-09-15T02:26:39.735Z,87.90
2022-09-15T02:29:10.928Z,88.50
2022-09-15T02:31:41.650Z,88.60
2022-09-15T02:34:16.927Z,89.30
2022-09-15T02:36:45.779Z,89.10
2022-09-15T02:39:19.581Z,89.40
2022-09-15T02:41:48.811Z,89.10
2022-09-15T02:44:17.115Z,88.90
2022-09-15T02:46:46.674Z,88.70
2022-09-15T02:49:14.956Z,88.70
2022-09-15T02:51:43.150Z,89.70
2022-09-15T02:54:11.942Z,90.20
2022-09-15T02:56:41.180Z,90.10
2022-09-15T02:59:09.412Z,89.90
2022-09-15T03:01:38.906Z,89.70
2022-09-15T03:04:08.420Z,89.70
2022-09-15T03:06:36.823Z,89.90
2022-09-15T03:09:07.572Z,89.90
2022-09-15T03:11:36.967Z,90.00
2022-09-15T03:14:07.120Z,90.10
2022-09-15T03:16:36.542Z,90.30
2022-09-15T03:19:05.952Z,90.60
2022-09-15T03:21:37.535Z,90.80
2022-09-15T03:24:06.110Z,90.90
2022-09-15T03:26:34.404Z,91.70
2022-09-15T03:29:02.772Z,91.70
2022-09-15T03:31:31.032Z,91.70
2022-09-15T03:33:59.296Z,91.20
2022-09-15T03:36:27.689Z,91.30
2022-09-15T03:38:59.338Z,91.50
2022-09-15T03:41:29.321Z,91.10
2022-09-15T03:43:57.823Z,91.10
2022-09-15T03:46:26.047Z,90.80
2022-09-15T03:48:54.345Z,90.50
2022-09-15T03:51:22.661Z,90.60
2022-09-15T03:53:51.193Z,90.50
2022-09-15T03:56:28.310Z,90.50
2022-09-15T03:58:56.546Z,90.40
2022-09-15T04:01:24.892Z,90.40
2022-09-15T04:03:53.043Z,90.20
2022-09-15T04:06:22.247Z,90.10
2022-09-15T04:08:51.162Z,89.70
2022-09-15T04:11:22.089Z,89.10
2022-09-15T04:13:51.035Z,89.00
2022-09-15T04:16:23.136Z,87.90
2022-09-15T04:18:51.788Z,88.50
2022-09-15T04:21:22.938Z,88.10
2022-09-15T04:23:51.581Z,88.40
2022-09-15T04:26:24.805Z,88.70
2022-09-15T04:28:53.020Z,89.00
2022-09-15T04:31:21.655Z,88.20
2022-09-15T04:33:52.854Z,88.20
2022-09-15T04:36:23.751Z,88.40
2022-09-15T04:38:52.285Z,89.00
2022-09-15T04:41:22.466Z,89.20
2022-09-15T04:43:50.951Z,89.70
2022-09-15T04:46:19.956Z,90.00
2022-09-15T04:48:48.920Z,90.10
2022-09-15T04:51:19.851Z,89.80
2022-09-15T04:53:50.206Z,89.50
2022-09-15T04:56:19.809Z,90.20
2022-09-15T04:58:51.280Z,90.20
2022-09-15T05:01:21.095Z,90.30
2022-09-15T05:03:49.412Z,90.30
2022-09-15T05:06:19.307Z,90.20
2022-09-15T05:08:49.078Z,90.70
2022-09-15T05:11:18.327Z,90.80
2022-09-15T05:13:47.187Z,90.70
2022-09-15T05:16:18.218Z,91.20
2022-09-15T05:18:48.456Z,91.70
2022-09-15T05:21:27.822Z,91.70
2022-09-15T05:23:56.586Z,91.70
2022-09-15T05:26:29.370Z,91.30
2022-09-15T05:28:58.491Z,91.30
2022-09-15T05:31:30.885Z,90.90
2022-09-15T05:34:01.947Z,90.60
2022-09-15T05:36:30.435Z,90.60
2022-09-15T05:38:59.228Z,90.80
2022-09-15T05:41:29.498Z,90.90
2022-09-15T05:43:58.951Z,90.70
2022-09-15T05:46:30.090Z,91.00
2022-09-15T05:48:59.522Z,91.30
2022-09-15T05:51:27.747Z,91.70
2022-09-15T05:53:56.264Z,91.60
2022-09-15T05:56:24.515Z,91.90
2022-09-15T05:58:52.767Z,91.80
2022-09-15T06:01:23.404Z,91.80
2022-09-15T06:03:53.384Z,92.20
2022-09-15T06:06:25.599Z,91.70
2022-09-15T06:08:58.000Z,91.90
2022-09-15T06:11:28.401Z,91.90
2022-09-15T06:14:01.248Z,92.10
2022-09-15T06:16:33.192Z,91.90
2022-09-15T06:19:03.355Z,91.70
2022-09-15T06:21:33.122Z,91.40
2022-09-15T06:24:04.507Z,91.00
2022-09-15T06:26:34.992Z,91.20
2022-09-15T06:29:05.237Z,91.40
2022-09-15T06:31:35.843Z,91.30
2022-09-15T06:34:10.021Z,91.30
2022-09-15T06:36:39.262Z,91.30
2022-09-15T06:39:08.534Z,91.60
2022-09-15T06:42:00.884Z,91.00
2022-09-15T06:44:30.136Z,91.20
2022-09-15T06:46:58.430Z,91.30
2022-09-15T06:49:28.966Z,91.60
2022-09-15T06:51:57.224Z,91.30
2022-09-15T06:54:28.422Z,91.40
2022-09-15T06:56:56.673Z,91.30
2022-09-15T06:59:25.157Z,91.70
2022-09-15T07:01:54.683Z,92.50
2022-09-15T07:04:23.622Z,89.80
2022-09-15T07:06:53.581Z,90.10
2022-09-15T07:09:22.209Z,89.00
2022-09-15T07:11:50.756Z,88.30
2022-09-15T07:14:25.393Z,87.00
2022-09-15T07:17:04.077Z,85.40
2022-09-15T07:19:33.952Z,86.40
2022-09-15T07:22:08.720Z,86.30
2022-09-15T07:24:41.138Z,86.00
2022-09-15T07:27:13.641Z,87.60
2022-09-15T07:29:43.414Z,87.90
2022-09-15T07:32:14.211Z,87.20
2022-09-15T07:34:45.367Z,87.70
2022-09-15T07:37:17.616Z,86.70
2022-09-15T07:39:51.323Z,86.60
2022-09-15T07:42:19.751Z,87.00
2022-09-15T07:44:48.250Z,86.20
2022-09-15T07:47:16.971Z,86.00
2022-09-15T07:49:59.470Z,85.20
2022-09-15T07:52:31.023Z,85.50
2022-09-15T07:54:59.769Z,85.50
2022-09-15T07:57:37.813Z,84.40
2022-09-15T08:00:07.444Z,83.80
2022-09-15T08:02:41.496Z,84.30
2022-09-15T08:05:10.508Z,84.30
2022-09-15T08:07:41.388Z,85.10
2022-09-15T08:10:15.197Z,84.30
2022-09-15T08:12:44.181Z,85.10
2022-09-15T08:15:13.093Z,84.70
2022-09-15T08:17:54.152Z,84.80
2022-09-15T08:20:27.872Z,83.80
2022-09-15T08:23:03.060Z,83.90
2022-09-15T08:25:39.601Z,83.80
2022-09-15T08:28:08.436Z,84.00
2022-09-15T08:30:42.232Z,82.60
2022-09-15T08:33:21.503Z,82.40
2022-09-15T08:35:54.331Z,82.10
2022-09-15T08:38:32.380Z,81.80
2022-09-15T08:41:07.669Z,80.10
2022-09-15T08:43:49.579Z,80.80
2022-09-15T08:46:29.387Z,82.20
2022-09-15T08:49:07.828Z,81.60
2022-09-15T08:51:56.109Z,80.50
2022-09-15T08:54:36.106Z,80.80
2022-09-15T08:57:29.267Z,80.00
2022-09-15T09:00:06.404Z,79.60
2022-09-15T09:02:58.076Z,78.80
2022-09-15T09:05:44.819Z,79.20
2022-09-15T09:09:01.977Z,78.70
2022-09-15T09:11:52.692Z,78.50
2022-09-15T09:14:38.337Z,78.10
2022-09-15T09:17:23.845Z,75.50
2022-09-15T09:20:06.423Z,78.00
2022-09-15T09:22:39.060Z,77.10
2022-09-15T09:25:26.182Z,78.70
2022-09-15T09:27:58.429Z,79.50
2022-09-15T09:30:38.332Z,77.50
2022-09-15T09:33:27.012Z,77.30
2022-09-15T09:35:55.724Z,79.10
2022-09-15T09:38:34.127Z,79.50
2022-09-15T09:41:09.375Z,79.10
2022-09-15T09:43:46.456Z,79.10
2022-09-15T09:46:18.431Z,78.40
2022-09-15T09:48:51.010Z,79.00
2022-09-15T09:51:42.356Z,79.60
2022-09-15T09:54:23.577Z,79.50
2022-09-15T09:56:57.059Z,79.70
2022-09-15T09:59:41.672Z,79.70
2022-09-15T10:02:17.204Z,79.20
2022-09-15T10:04:56.374Z,78.80
2022-09-15T10:07:27.948Z,78.60
2022-09-15T10:10:03.226Z,79.00
2022-09-15T10:12:35.885Z,79.80
2022-09-15T10:15:26.760Z,79.00
2022-09-15T10:18:09.828Z,79.70
2022-09-15T10:20:53.806Z,79.40
2022-09-15T10:23:29.744Z,79.40
2022-09-15T10:26:26.075Z,79.40
2022-09-15T10:29:15.852Z,80.60
2022-09-15T10:31:49.212Z,81.00
2022-09-15T10:34:42.294Z,79.20
2022-09-15T10:37:28.680Z,79.50
2022-09-15T10:40:04.886Z,79.70
2022-09-15T10:42:53.129Z,80.70
2022-09-15T10:45:41.873Z,79.50
2022-09-15T10:48:50.799Z,79.50
2022-09-15T10:51:35.423Z,79.70
2022-09-15T10:54:29.231Z,78.80
2022-09-15T10:57:09.611Z,78.20
2022-09-15T11:00:01.727Z,79.40
2022-09-15T11:03:10.783Z,79.30
2022-09-15T11:06:02.162Z,79.70
2022-09-15T11:09:02.178Z,79.40
2022-09-15T11:11:48.256Z,79.90
2022-09-15T11:14:32.430Z,80.30
2022-09-15T11:17:26.456Z,81.10
2022-09-15T11:20:35.170Z,80.50
2022-09-15T11:23:15.379Z,82.10
2022-09-15T11:25:54.645Z,81.20
2022-09-15T11:28:27.337Z,80.50
2022-09-15T11:31:04.483Z,81.50
2022-09-15T11:33:40.976Z,83.20
2022-09-15T11:36:16.018Z,83.80
2022-09-15T11:38:56.586Z,82.30
2022-09-15T11:41:32.162Z,80.50
2022-09-15T11:44:16.653Z,80.10
2022-09-15T11:47:07.661Z,81.40
2022-09-15T11:49:43.309Z,81.80
2022-09-15T11:52:41.713Z,80.20
2022-09-15T11:55:22.005Z,81.10
2022-09-15T11:57:59.612Z,80.90
2022-09-15T12:00:28.428Z,80.60
2022-09-15T12:03:11.452Z,81.80
2022-09-15T12:05:47.068Z,83.60
2022-09-15T12:08:23.474Z,82.00
2022-09-15T12:10:57.412Z,79.50
2022-09-15T12:13:28.207Z,77.60
2022-09-15T12:15:57.514Z,79.80
2022-09-15T12:18:39.912Z,81.40
2022-09-15T12:21:18.694Z,81.40
2022-09-15T12:23:54.536Z,78.40
2022-09-15T12:26:27.342Z,80.20
2022-09-15T12:29:02.490Z,79.50
2022-09-15T12:31:36.857Z,80.80
2022-09-15T12:34:27.387Z,82.70
2022-09-15T12:36:56.623Z,83.70
2022-09-15T12:39:31.813Z,82.50
2022-09-15T12:42:20.806Z,76.00
2022-09-15T12:44:53.842Z,76.10
2022-09-15T12:47:37.638Z,74.30
2022-09-15T12:50:31.306Z,71.40
2022-09-15T12:53:03.751Z,69.20
2022-09-15T12:55:38.665Z,66.50
2022-09-15T12:58:10.770Z,66.70
2022-09-15T13:01:07.269Z,68.90
2022-09-15T13:04:06.952Z,67.00
2022-09-15T13:06:39.429Z,66.60
2022-09-15T13:09:27.848Z,64.60
2022-09-15T13:11:57.868Z,66.50
2022-09-15T13:14:33.853Z,59.70
2022-09-15T13:17:08.943Z,58.20
2022-09-15T13:19:43.796Z,60.60
2022-09-15T13:22:20.955Z,59.40
2022-09-15T13:24:59.027Z,57.70
2022-09-15T13:27:36.856Z,62.20
2022-09-15T13:30:20.182Z,58.10
2022-09-15T13:32:59.154Z,56.80
2022-09-15T13:36:00.805Z,58.00
2022-09-15T13:38:58.213Z,58.90
2022-09-15T13:41:55.851Z,56.30
2022-09-15T13:44:57.168Z,57.20
2022-09-15T13:47:41.107Z,57.70
2022-09-15T13:50:22.931Z,53.40
2022-09-15T13:53:08.537Z,56.90
2022-09-15T13:55:39.600Z,54.00
2022-09-15T14:01:06.924Z,52.50
2022-09-15T14:03:41.861Z,51.40
2022-09-15T14:06:20.843Z,53.30
2022-09-15T14:08:53.625Z,54.00
2022-09-15T14:11:34.370Z,52.20
2022-09-15T14:14:03.106Z,50.70
2022-09-15T14:16:35.295Z,48.90
2022-09-15T14:19:17.901Z,50.00
2022-09-15T14:21:49.577Z,51.20
2022-09-15T14:24:22.471Z,53.30
2022-09-15T14:26:52.526Z,54.70
2022-09-15T14:29:36.297Z,53.30
2022-09-15T14:32:15.992Z,55.30
2022-09-15T14:34:51.166Z,51.40
2022-09-15T14:37:27.682Z,52.50
2022-09-15T14:39:58.451Z,58.00
2022-09-15T14:42:32.556Z,57.40
2022-09-15T14:48:03.897Z,59.10
2022-09-15T14:50:33.706Z,56.50
2022-09-15T14:53:18.619Z,56.50
2022-09-15T14:56:08.316Z,58.10
2022-09-15T14:58:42.638Z,58.90
2022-09-15T15:01:17.455Z,58.40
2022-09-15T15:03:57.285Z,58.10
2022-09-15T15:06:43.604Z,59.00
2022-09-15T15:09:21.342Z,58.00
2022-09-15T15:11:51.611Z,57.90
2022-09-15T15:14:20.566Z,56.40
2022-09-15T15:16:59.459Z,56.00
2022-09-15T15:19:33.800Z,55.10
2022-09-15T15:22:24.487Z,56.40
2022-09-15T15:24:54.929Z,57.00
2022-09-15T15:27:40.384Z,61.00
2022-09-15T15:30:35.198Z,59.50
2022-09-15T15:33:19.306Z,61.70
2022-09-15T15:35:51.169Z,58.60
2022-09-15T15:38:25.470Z,59.50
2022-09-15T15:41:05.807Z,58.90
2022-09-15T15:43:37.700Z,58.80
2022-09-15T15:46:07.736Z,62.40
2022-09-15T15:49:09.320Z,60.20
2022-09-15T15:51:46.035Z,60.90
2022-09-15T15:54:19.035Z,60.30
2022-09-15T15:57:23.570Z,60.80
2022-09-15T15:59:59.231Z,61.20
2022-09-15T16:02:28.868Z,61.60
2022-09-15T16:05:02.349Z,62.20
2022-09-15T16:07:34.778Z,59.00
2022-09-15T16:10:04.184Z,58.10
2022-09-15T16:12:35.452Z,56.60
2022-09-15T16:15:17.210Z,56.70
2022-09-15T16:18:06.184Z,57.80
2022-09-15T16:20:35.044Z,58.30
2022-09-15T16:23:06.513Z,59.10
2022-09-15T16:26:11.183Z,59.10
2022-09-15T16:28:50.167Z,59.00
2022-09-15T16:31:29.145Z,59.10
2022-09-15T16:34:33.644Z,58.90
2022-09-15T16:37:18.288Z,60.30
2022-09-15T16:39:51.121Z,60.60
2022-09-15T16:42:20.406Z,60.90
2022-09-15T16:44:53.367Z,60.90
2022-09-15T16:47:22.247Z,60.20
2022-09-15T16:49:51.379Z,60.40
2022-09-15T16:52:20.306Z,60.10
2022-09-15T16:54:49.211Z,58.70
2022-09-15T16:57:19.632Z,59.20
2022-09-15T16:59:49.708Z,59.50
2022-09-15T17:02:19.356Z,59.50
2022-09-15T17:04:47.987Z,59.30
2022-09-15T17:07:16.946Z,61.40
2022-09-15T17:09:50.107Z,62.80
2022-09-15T17:12:18.882Z,64.40
2022-09-15T17:14:56.016Z,66.20
2022-09-15T17:17:35.425Z,65.70
2022-09-15T17:20:10.379Z,65.80
2022-09-15T17:22:57.058Z,64.60
2022-09-15T17:25:41.628Z,63.80
2022-09-15T17:28:21.858Z,65.00
2022-09-15T17:31:04.141Z,64.30
2022-09-15T17:33:43.511Z,63.70
2022-09-15T17:36:15.682Z,63.20
2022-09-15T17:38:48.947Z,62.90
2022-09-15T17:41:20.848Z,64.10
2022-09-15T17:43:55.431Z,65.10
2022-09-15T17:46:28.113Z,66.20
2022-09-15T17:49:00.090Z,65.20
2022-09-15T17:51:29.694Z,65.10
2022-09-15T17:53:58.822Z,65.80
2022-09-15T17:59:16.395Z,64.00
2022-09-15T18:01:52.273Z,65.00
2022-09-15T18:04:21.255Z,64.60
2022-09-15T18:07:12.661Z,65.60
2022-09-15T18:10:28.522Z,66.70
2022-09-15T18:13:32.080Z,65.30
2022-09-15T18:16:08.505Z,66.30
2022-09-15T18:18:47.844Z,66.40
2022-09-15T18:21:35.017Z,67.90
2022-09-15T18:24:24.795Z,67.80
2022-09-15T18:27:01.453Z,68.00
2022-09-15T18:29:37.220Z,67.60
2022-09-15T18:32:09.245Z,67.30
2022-09-15T18:34:39.854Z,67.40
2022-09-15T18:37:10.799Z,67.30
2022-09-15T18:39:48.593Z,67.40
2022-09-15T18:42:42.181Z,67.00
2022-09-15T18:45:44.329Z,67.00
2022-09-15T18:48:17.180Z,66.50
2022-09-15T18:51:50.492Z,66.30
2022-09-15T18:54:35.086Z,67.30
2022-09-15T18:57:10.462Z,67.10
2022-09-15T18:59:41.977Z,68.10
2022-09-15T19:02:12.088Z,68.90
2022-09-15T19:05:23.422Z,68.80
2022-09-15T19:08:02.256Z,69.40
2022-09-15T19:10:36.334Z,69.70
2022-09-15T19:13:22.201Z,68.60
2022-09-15T19:16:02.780Z,69.80
2022-09-15T19:18:58.077Z,69.10
2022-09-15T19:21:58.796Z,69.60
2022-09-15T19:25:01.225Z,69.30
2022-09-15T19:27:51.238Z,69.40
2022-09-15T19:30:22.736Z,68.60
2022-09-15T19:33:03.413Z,67.10
2022-09-15T19:35:33.915Z,68.00
2022-09-15T19:38:08.864Z,68.80
2022-09-15T19:40:45.933Z,68.10
2022-09-15T19:46:56.156Z,68.50
2022-09-15T19:49:31.569Z,68.10
2022-09-15T19:52:03.550Z,67.90
2022-09-15T19:54:32.801Z,68.20
2022-09-15T19:57:01.613Z,68.60
2022-09-15T19:59:37.831Z,69.10
2022-09-15T20:02:35.756Z,69.00
2022-09-15T20:05:38.520Z,69.10
2022-09-15T20:08:12.892Z,68.90
2022-09-15T20:10:56.443Z,69.00
2022-09-15T20:13:46.007Z,69.50
2022-09-15T20:16:29.151Z,68.90
2022-09-15T20:19:15.765Z,69.90
2022-09-15T20:21:50.323Z,69.00
2022-09-15T20:24:22.336Z,69.70
2022-09-15T20:27:17.926Z,69.00
2022-09-15T20:34:16.147Z,69.80
2022-09-15T20:37:04.550Z,69.70
2022-09-15T20:39:33.549Z,69.40
2022-09-15T20:42:02.297Z,70.90
2022-09-15T20:44:32.570Z,71.50
2022-09-15T20:47:01.443Z,71.60
2022-09-15T20:49:30.069Z,72.10
2022-09-15T20:52:02.809Z,72.00
2022-09-15T20:54:31.355Z,73.20
2022-09-15T20:57:00.535Z,73.30
2022-09-15T20:59:29.212Z,72.90
2022-09-15T21:01:57.826Z,72.70
2022-09-15T21:04:26.433Z,72.80
2022-09-15T21:06:55.131Z,72.00
2022-09-15T21:09:25.238Z,72.20
2022-09-15T21:11:53.993Z,72.40
2022-09-15T21:14:55.906Z,71.90
2022-09-15T21:17:28.503Z,71.90
2022-09-15T21:20:50.672Z,72.00
2022-09-15T21:23:19.628Z,71.80
2022-09-15T21:26:02.132Z,71.20
2022-09-15T21:28:38.627Z,71.30
2022-09-15T21:31:09.461Z,71.20
2022-09-15T21:33:38.795Z,71.50
2022-09-15T21:36:11.884Z,71.30
2022-09-15T21:38:41.819Z,71.40
2022-09-15T21:41:13.728Z,71.60
2022-09-15T21:43:43.531Z,70.80
2022-09-15T21:46:14.053Z,70.80
2022-09-15T21:48:42.527Z,71.00
2022-09-15T21:51:30.002Z,70.50
2022-09-15T22:00:39.450Z,69.30
2022-09-15T22:03:59.067Z,68.60
2022-09-15T22:07:12.753Z,69.40
2022-09-15T22:10:15.564Z,70.00
2022-09-15T22:17:49.153Z,71.00
2022-09-15T22:26:16.798Z,71.50
2022-09-15T22:33:33.101Z,71.70
2022-09-15T22:36:38.356Z,71.40
2022-09-15T22:39:58.869Z,72.30
2022-09-15T22:43:27.911Z,73.00
2022-09-15T22:45:56.545Z,73.10
2022-09-15T22:48:25.308Z,74.10
2022-09-15T22:50:54.381Z,73.30
2022-09-15T22:53:33.129Z,74.50
2022-09-15T22:57:14.832Z,73.70
2022-09-15T23:01:01.497Z,73.80
2022-09-15T23:03:49.263Z,73.80
2022-09-15T23:10:27.958Z,73.60
2022-09-15T23:13:01.635Z,74.60
2022-09-15T23:16:02.891Z,75.00
2022-09-15T23:18:43.587Z,73.80
2022-09-15T23:21:15.667Z,73.90
2022-09-15T23:23:48.471Z,73.90
2022-09-15T23:26:19.249Z,73.80
2022-09-15T23:28:49.349Z,73.90
2022-09-15T23:31:20.205Z,73.90
2022-09-15T23:33:49.768Z,73.90
2022-09-15T23:36:20.447Z,73.90
2022-09-15T23:38:50.255Z,74.20
2022-09-15T23:41:19.375Z,73.80
2022-09-15T23:43:48.173Z,73.40
2022-09-15T23:46:18.267Z,73.80
2022-09-15T23:48:47.228Z,73.00
2022-09-15T23:51:29.496Z,73.30
2022-09-15T23:55:03.933Z,73.50
